createdAt,value
2023-01-19T00:01:49.167Z,93258.09
2023-01-19T00:04:17.778Z,93216.16
2023-01-19T00:06:46.224Z,93220.63
2023-01-19T00:09:14.630Z,93221.81
2023-01-19T00:11:44.421Z,93315.47
2023-01-19T00:14:12.908Z,93263.75
2023-01-19T00:16:41.442Z,93234.34
2023-01-19T00:19:10.738Z,93225.31
2023-01-19T00:21:39.279Z,93279.09
2023-01-19T00:24:08.307Z,93227.09
2023-01-19T00:26:40.535Z,93204.06
2023-01-19T00:29:11.558Z,93229.81
2023-01-19T00:32:06.259Z,93233.03
2023-01-19T00:34:39.646Z,93278.28
2023-01-19T00:37:32.920Z,93229.03
2023-01-19T00:40:01.351Z,93222.78
2023-01-19T00:42:41.715Z,93217.69
2023-01-19T00:45:14.674Z,93245.19
2023-01-19T00:47:54.766Z,93238.47
2023-01-19T00:50:23.546Z,93243.06
2023-01-19T00:52:53.744Z,93223.44
2023-01-19T00:55:22.531Z,93259.44
2023-01-19T00:57:51.271Z,93234.94
2023-01-19T01:00:22.601Z,93198.00
2023-01-19T01:02:53.513Z,93225.03
2023-01-19T01:05:22.653Z,93245.03
2023-01-19T01:07:51.842Z,93284.66
2023-01-19T08:22:33.056Z,93332.69
2023-01-19T08:25:01.611Z,93332.03
2023-01-19T08:27:30.849Z,93343.69
2023-01-19T08:30:30.461Z,93341.06
2023-01-19T08:33:05.354Z,93341.56
2023-01-19T08:35:35.155Z,93336.97
2023-01-19T08:38:06.164Z,93388.63
2023-01-19T08:57:28.683Z,93351.50
2023-01-19T08:59:57.395Z,93356.00
2023-01-19T09:02:26.248Z,93352.75
2023-01-19T09:04:55.481Z,93373.78
2023-01-19T09:07:24.473Z,93359.75
2023-01-19T09:09:53.382Z,93362.41
2023-01-19T09:12:50.655Z,93365.78
2023-01-19T09:15:19.844Z,93409.22
2023-01-19T09:17:48.436Z,93385.09
2023-01-19T09:20:17.485Z,93412.47
2023-01-19T09:22:47.788Z,93384.88
2023-01-19T09:25:16.750Z,93373.00
2023-01-19T09:27:45.758Z,93399.13
2023-01-19T09:30:17.367Z,93388.47
2023-01-19T09:32:46.650Z,93380.16
2023-01-19T09:35:15.578Z,93358.63
2023-01-19T09:37:48.745Z,93342.13
2023-01-19T09:40:21.191Z,93352.81
2023-01-19T09:42:57.186Z,93366.97
2023-01-19T09:45:36.605Z,93349.97
2023-01-19T09:48:30.480Z,93350.53
2023-01-19T09:51:27.604Z,93326.00
2023-01-19T09:54:11.134Z,93369.56
2023-01-19T09:56:40.327Z,93330.31
2023-01-19T09:59:23.122Z,93341.16
2023-01-19T10:02:12.761Z,93358.69
2023-01-19T10:04:43.910Z,93345.47
2023-01-19T10:19:56.317Z,93292.72
2023-01-19T10:22:29.440Z,93331.28
2023-01-19T10:25:05.947Z,93298.75
2023-01-19T10:27:37.679Z,93310.16
2023-01-19T10:30:16.600Z,93299.47
2023-01-19T10:32:45.731Z,93307.56
2023-01-19T10:35:24.381Z,93289.03
2023-01-19T10:37:57.215Z,93281.06
2023-01-19T10:40:34.771Z,93291.47
2023-01-19T10:43:24.112Z,93308.69
2023-01-19T10:45:52.846Z,93353.59
2023-01-19T10:48:21.354Z,93285.16
2023-01-19T10:51:04.520Z,93334.53
2023-01-19T10:53:33.470Z,93375.13
2023-01-19T10:56:32.035Z,93308.97
2023-01-19T10:59:03.328Z,93276.50
2023-01-19T11:01:36.140Z,93278.22
2023-01-19T11:04:29.635Z,93288.03
2023-01-19T11:07:17.028Z,93283.78
2023-01-19T11:09:45.582Z,93282.84
2023-01-19T11:12:23.964Z,93291.84
2023-01-19T11:14:53.849Z,93303.78
2023-01-19T11:17:26.296Z,93320.91
2023-01-19T11:19:59.377Z,93298.69
2023-01-19T11:22:33.489Z,93285.19
2023-01-19T11:25:04.170Z,93232.94
2023-01-19T11:27:37.387Z,93276.34
2023-01-19T11:30:18.683Z,93266.56
2023-01-19T11:32:49.268Z,93277.31
2023-01-19T11:35:39.824Z,93271.38
2023-01-19T11:38:27.172Z,93285.50
2023-01-19T11:40:58.367Z,93264.34
2023-01-19T11:43:47.511Z,93305.84
2023-01-19T11:46:18.103Z,93263.91
2023-01-19T11:48:56.689Z,93264.19
2023-01-19T11:51:31.823Z,93249.75
2023-01-19T11:54:07.047Z,93282.41
2023-01-19T11:56:36.600Z,93269.03
2023-01-19T11:59:05.407Z,93263.13
2023-01-19T12:01:37.774Z,93277.25
2023-01-19T12:04:14.331Z,93258.28
2023-01-19T12:06:52.384Z,93266.84
2023-01-19T12:09:28.078Z,93288.28
2023-01-19T12:12:04.833Z,93251.88
2023-01-19T12:14:42.015Z,93261.84
2023-01-19T12:17:25.304Z,93278.81
2023-01-19T12:20:02.505Z,93253.44
2023-01-19T12:22:36.506Z,93278.81
2023-01-19T12:25:19.701Z,93258.72
2023-01-19T12:27:50.573Z,93269.63
2023-01-19T12:30:24.741Z,93255.16
2023-01-19T12:32:53.399Z,93258.28
2023-01-19T12:35:57.998Z,93244.53
2023-01-19T12:38:41.192Z,93247.00
2023-01-19T12:41:25.722Z,93266.16
2023-01-19T12:44:22.187Z,93272.34
2023-01-19T12:46:55.561Z,93255.09
2023-01-19T12:49:33.182Z,93251.13
2023-01-19T12:52:24.225Z,93243.34
2023-01-19T12:55:01.761Z,93283.34
2023-01-19T12:57:36.261Z,93264.34
2023-01-19T13:00:28.516Z,93246.31
2023-01-19T13:02:58.686Z,93238.22
2023-01-19T13:05:59.973Z,93246.75
2023-01-19T13:09:08.982Z,93237.84
2023-01-19T13:12:28.942Z,93242.06
2023-01-19T13:15:36.161Z,93262.56
2023-01-19T13:18:05.746Z,93262.06
2023-01-19T13:20:46.114Z,93234.09
2023-01-19T13:23:25.279Z,93249.59
2023-01-19T13:26:05.771Z,93229.63
2023-01-19T13:28:42.249Z,93219.09
2023-01-19T13:32:06.010Z,93205.56
2023-01-19T13:34:43.524Z,93236.38
2023-01-19T13:37:21.912Z,93204.97
2023-01-19T13:39:54.942Z,93219.63
2023-01-19T13:42:31.782Z,93237.03
2023-01-19T13:45:18.946Z,93209.03
2023-01-19T13:47:51.031Z,93218.66
2023-01-19T13:50:23.704Z,93225.03
2023-01-19T13:52:55.551Z,93218.38
2023-01-19T13:55:24.966Z,93210.75
2023-01-19T13:58:22.331Z,93233.91
2023-01-19T14:00:50.941Z,93268.41
2023-01-19T14:03:24.729Z,93211.03
2023-01-19T14:05:54.823Z,93231.25
2023-01-19T14:08:25.775Z,93247.69
2023-01-19T14:11:04.274Z,93239.13
2023-01-19T14:13:35.158Z,93262.84
2023-01-19T14:16:17.675Z,93220.56
2023-01-19T14:18:47.691Z,93248.78
2023-01-19T14:21:18.657Z,93254.28
2023-01-19T14:23:50.887Z,93239.31
2023-01-19T14:26:46.130Z,93248.00
2023-01-19T14:29:39.523Z,93250.97
2023-01-19T14:32:17.666Z,93239.75
2023-01-19T14:34:50.209Z,93246.44
2023-01-19T14:37:24.329Z,93258.09
2023-01-19T14:39:58.798Z,93270.63
2023-01-19T14:42:32.945Z,93246.88
2023-01-19T14:45:29.896Z,93246.41
2023-01-19T14:48:02.149Z,93262.84
2023-01-19T14:50:36.246Z,93262.69
2023-01-19T14:53:23.755Z,93256.03
2023-01-19T14:55:57.014Z,93266.75
2023-01-19T14:58:28.981Z,93256.03
2023-01-19T15:00:57.498Z,93263.16
2023-01-19T15:03:42.680Z,93273.56
2023-01-19T15:06:17.512Z,93261.91
2023-01-19T15:08:48.957Z,93270.13
2023-01-19T15:11:25.017Z,93275.53
2023-01-19T15:13:54.285Z,93275.00
2023-01-19T15:16:24.749Z,93274.25
2023-01-19T15:18:53.578Z,93285.22
2023-01-19T15:21:26.572Z,93291.03
2023-01-19T15:23:55.867Z,93298.59
2023-01-19T15:26:27.235Z,93277.44
2023-01-19T15:28:57.755Z,93292.75
2023-01-19T15:31:27.730Z,93300.97
2023-01-19T15:33:56.564Z,93308.59
2023-01-19T15:36:26.446Z,93298.53
2023-01-19T15:38:57.057Z,93296.00
2023-01-19T15:41:29.945Z,93304.31
2023-01-19T15:43:59.131Z,93303.63
2023-01-19T15:46:28.444Z,93297.88
2023-01-19T15:49:20.294Z,93313.44
2023-01-19T15:51:50.271Z,93310.13
2023-01-19T15:54:20.528Z,93322.63
2023-01-19T15:56:49.118Z,93339.66
2023-01-19T15:59:17.744Z,93347.66
2023-01-19T16:01:46.317Z,93347.66
2023-01-19T16:04:17.808Z,93350.88
2023-01-19T16:06:46.471Z,93392.53
2023-01-19T16:09:18.562Z,93349.22
2023-01-19T16:11:47.702Z,93368.28
2023-01-19T16:14:17.590Z,93389.75
2023-01-19T16:16:46.331Z,93390.03
2023-01-19T16:19:16.759Z,93417.84
2023-01-19T16:21:45.306Z,93398.00
2023-01-19T16:24:15.284Z,93411.94
2023-01-19T16:26:43.904Z,93422.50
2023-01-19T16:29:12.434Z,93467.34
2023-01-19T16:31:45.522Z,93471.81
2023-01-19T16:34:14.201Z,93453.63
2023-01-19T16:36:43.869Z,93470.75
2023-01-19T16:39:17.863Z,93477.19
2023-01-19T16:41:47.463Z,93482.53
2023-01-19T16:44:17.971Z,93463.06
2023-01-19T16:46:49.804Z,93467.97
2023-01-19T16:49:21.210Z,93498.25
2023-01-19T16:51:50.998Z,93509.34
2023-01-19T16:54:25.928Z,93512.16
2023-01-19T16:57:19.665Z,93512.66
2023-01-19T16:59:48.154Z,93504.38
2023-01-19T17:02:16.978Z,93523.31
2023-01-19T17:04:45.672Z,93508.69
2023-01-19T17:07:14.146Z,93520.53
2023-01-19T17:09:44.200Z,93484.16
2023-01-19T17:12:12.812Z,93457.16
2023-01-19T17:14:43.127Z,93434.91
2023-01-19T17:17:11.606Z,93438.84
2023-01-19T17:19:41.091Z,93436.28
2023-01-19T17:22:09.592Z,93446.25
2023-01-19T17:24:42.338Z,93434.72
2023-01-19T17:27:15.071Z,93441.78
2023-01-19T17:29:43.495Z,93447.56
2023-01-19T17:32:11.964Z,93437.63
2023-01-19T17:34:40.749Z,93407.25
2023-01-19T17:37:09.261Z,93404.63
2023-01-19T17:39:50.790Z,93402.81
2023-01-19T17:42:20.784Z,93435.03
2023-01-19T17:44:49.480Z,93443.31
2023-01-19T17:47:18.106Z,93460.34
2023-01-19T17:49:46.656Z,93467.69
2023-01-19T17:52:17.795Z,93473.44
2023-01-19T17:54:46.878Z,93501.44
2023-01-19T17:57:15.644Z,93487.06
2023-01-19T17:59:46.939Z,93458.81
2023-01-19T18:02:15.522Z,93454.63
2023-01-19T18:04:44.576Z,93455.69
2023-01-19T18:07:13.255Z,93480.03
2023-01-19T18:09:41.963Z,93527.22
2023-01-19T18:12:10.698Z,93509.16
2023-01-19T18:14:40.517Z,93505.50
2023-01-19T18:17:10.677Z,93489.28
2023-01-19T18:19:39.407Z,93520.69
2023-01-19T18:22:07.908Z,93530.06
2023-01-19T18:24:36.641Z,93542.41
2023-01-19T18:27:05.512Z,93565.44
2023-01-19T18:29:34.448Z,93574.63
2023-01-19T18:32:03.062Z,93544.81
2023-01-19T18:34:33.190Z,93542.19
2023-01-19T18:37:01.706Z,93512.88
2023-01-19T18:39:31.131Z,93503.47
2023-01-19T18:42:00.751Z,65556.66
2023-01-19T18:44:29.212Z,65556.66
2023-01-19T18:46:58.106Z,65556.66
2023-01-19T18:49:26.832Z,65556.66
2023-01-19T18:51:56.713Z,65556.66
2023-01-19T18:54:25.371Z,65556.66
2023-01-19T18:56:54.098Z,65556.66
2023-01-19T18:59:22.733Z,65556.66
2023-01-19T19:01:51.532Z,65556.66
2023-01-19T19:04:20.552Z,65556.66
2023-01-19T19:06:49.050Z,65556.66
2023-01-19T19:09:19.155Z,65556.66
2023-01-19T19:11:56.832Z,65556.66
2023-01-19T19:14:25.466Z,65556.66
2023-01-19T19:16:54.653Z,65556.66
2023-01-19T19:19:23.183Z,65556.66
2023-01-19T19:21:52.423Z,65556.66
2023-01-19T19:24:24.594Z,65556.66
2023-01-19T19:26:53.345Z,65556.66
2023-01-19T19:29:22.211Z,65556.66
2023-01-19T19:31:50.977Z,65556.66
2023-01-19T19:34:19.486Z,65556.66
2023-01-19T19:36:47.995Z,65556.66
2023-01-19T19:39:16.489Z,65556.66
2023-01-19T19:41:46.490Z,65556.66
2023-01-19T19:44:15.043Z,65556.66
2023-01-19T19:47:12.431Z,65556.66
2023-01-19T19:49:40.978Z,65556.66
2023-01-19T19:52:09.414Z,65556.66
2023-01-19T19:54:38.103Z,65556.66
2023-01-19T19:57:07.973Z,65556.66
2023-01-19T19:59:36.504Z,65556.66
2023-01-19T20:02:05.056Z,65556.66
2023-01-19T20:04:33.625Z,65556.66
2023-01-19T20:07:02.210Z,65556.66
2023-01-19T20:09:30.644Z,65556.66
2023-01-19T20:11:59.209Z,65556.66
2023-01-19T20:14:29.185Z,65556.66
2023-01-19T20:16:57.743Z,65556.66
2023-01-19T20:19:26.244Z,65556.66
2023-01-19T20:21:54.769Z,65556.66
2023-01-19T20:24:38.167Z,65556.66
2023-01-19T20:27:06.849Z,65556.66
2023-01-19T20:29:36.692Z,65556.66
2023-01-19T20:32:05.471Z,65556.66
2023-01-19T20:34:35.622Z,65556.66
2023-01-19T20:37:06.109Z,65556.66
2023-01-19T20:39:36.807Z,65556.66
2023-01-19T20:42:09.720Z,65556.66
2023-01-19T20:44:40.070Z,65556.66
2023-01-19T20:47:09.599Z,65556.66
2023-01-19T20:49:38.326Z,65556.66
2023-01-19T20:52:07.003Z,65556.66
2023-01-19T20:54:35.678Z,65556.66
2023-01-19T20:57:04.413Z,65556.66
2023-01-19T20:59:34.246Z,65556.66
2023-01-19T21:02:12.480Z,65556.66
2023-01-19T21:04:41.296Z,65556.66
2023-01-19T21:07:10.118Z,65556.66
2023-01-19T21:09:39.841Z,65556.66
2023-01-19T21:12:09.832Z,65556.66
2023-01-19T21:14:39.913Z,65556.66
2023-01-19T21:17:27.996Z,65556.66
2023-01-19T21:19:56.392Z,65556.66
2023-01-19T21:22:25.021Z,65556.66
2023-01-19T21:24:53.708Z,65556.66
2023-01-19T21:27:22.192Z,65556.66
2023-01-19T21:29:50.657Z,65556.66
2023-01-19T21:32:19.291Z,65556.66
2023-01-19T21:34:49.443Z,65556.66
2023-01-19T21:37:18.378Z,65556.66
2023-01-19T21:39:47.519Z,65556.66
2023-01-19T21:42:16.620Z,65556.66
2023-01-19T21:44:45.048Z,65556.66
2023-01-19T21:47:13.562Z,65556.66
2023-01-19T21:49:42.025Z,65556.66
2023-01-19T21:52:11.941Z,65556.66
2023-01-19T21:54:40.431Z,65556.66
2023-01-19T21:57:08.991Z,65556.66
2023-01-19T21:59:37.475Z,65556.66
2023-01-19T22:02:06.257Z,65556.66
2023-01-19T22:04:35.770Z,65556.66
2023-01-19T22:07:12.720Z,65556.66
2023-01-19T22:09:41.547Z,65556.66
2023-01-19T22:12:11.042Z,65556.66
2023-01-19T22:14:39.546Z,65556.66
2023-01-19T22:17:08.094Z,65556.66
2023-01-19T22:19:54.488Z,65556.66
2023-01-19T22:22:24.652Z,65556.66
2023-01-19T22:25:27.527Z,65556.66
2023-01-19T22:27:56.259Z,65556.66
2023-01-19T22:30:24.822Z,65556.66
2023-01-19T22:32:58.333Z,65556.66
2023-01-19T22:35:26.930Z,65556.66
2023-01-19T22:37:56.874Z,65556.66
2023-01-19T22:40:25.320Z,65556.66
2023-01-19T22:42:53.926Z,65556.66
2023-01-19T22:45:22.375Z,65556.66
2023-01-19T22:47:50.925Z,65556.66
2023-01-19T22:50:26.437Z,65556.66
2023-01-19T22:52:58.649Z,65556.66
2023-01-19T22:55:27.182Z,65556.66
2023-01-19T22:57:56.356Z,65556.66
2023-01-19T23:00:28.928Z,65556.66
2023-01-19T23:02:57.553Z,65556.66
2023-01-19T23:05:26.116Z,65556.66
2023-01-19T23:07:54.747Z,65556.66
2023-01-19T23:10:24.845Z,65556.66
2023-01-19T23:12:53.836Z,65556.66
2023-01-19T23:15:22.611Z,65556.66
2023-01-19T23:17:54.002Z,65556.66
2023-01-19T23:20:22.693Z,65556.66
2023-01-19T23:22:51.256Z,65556.66
2023-01-19T23:25:47.121Z,65556.66
2023-01-19T23:28:15.570Z,65556.66
2023-01-19T23:30:44.139Z,65556.66
2023-01-19T23:33:12.747Z,65556.66
2023-01-19T23:35:41.224Z,65556.66
2023-01-19T23:38:09.730Z,65556.66
2023-01-19T23:40:38.418Z,65556.66
2023-01-19T23:43:08.315Z,65556.66
2023-01-19T23:45:37.215Z,65556.66
2023-01-19T23:48:06.226Z,65556.66
2023-01-19T23:50:34.631Z,65556.66
2023-01-19T23:53:03.237Z,65556.66
2023-01-19T23:55:31.739Z,65556.66
2023-01-19T23:58:00.284Z,65556.66
